Time;durP1;ratioP1;P1;durP2;ratioP2;P2;SDS_P1;SDS_P2;PMS_P1;PMS_P2;Temp;Humidity;BMP_temperature;BMP_pressure;BME280_temperature;BME280_humidity;BME280_pressure;Samples;Min_cycle;Max_cycle;Signal;HPM_P1;HPM_P2
2023/08/20 00:01:56;;;;;;;0.70;0.70;;;;;;;23.91;66.96;101434.63;6316823;23;20016;-90
2023/08/20 00:04:27;;;;;;;0.70;0.70;;;;;;;23.91;67.18;101437.28;6318706;23;20124;-90
2023/08/20 00:06:57;;;;;;;1.35;1.25;;;;;;;23.88;67.39;101441.91;6342637;23;20044;-91
2023/08/20 00:09:29;;;;;;;0.90;0.90;;;;;;;23.84;67.42;101435.03;6378045;23;20010;-88
2023/08/20 00:11:59;;;;;;;0.47;0.47;;;;;;;23.63;68.24;101439.25;6313955;23;20002;-90
2023/08/20 00:15:04;;;;;;;1.00;0.95;;;;;;;23.63;68.29;101444.63;6339636;23;20020;-92
2023/08/20 00:17:37;;;;;;;3.08;0.55;;;;;;;23.63;67.70;101442.81;6339638;23;20387;-89
2023/08/20 00:20:16;;;;;;;0.73;0.73;;;;;;;23.66;67.37;101452.44;6318648;23;20032;-89
2023/08/20 00:22:47;;;;;;;1.10;0.88;;;;;;;23.66;67.39;101447.94;6319140;23;20029;-90
2023/08/20 00:25:17;;;;;;;2.10;0.80;;;;;;;23.65;67.12;101445.38;6315711;23;20009;-92
2023/08/20 00:27:48;;;;;;;0.73;0.70;;;;;;;23.62;67.38;101441.09;6317194;23;20330;-90
2023/08/20 00:30:18;;;;;;;0.50;0.50;;;;;;;23.56;67.61;101450.41;6340319;23;20307;-90
2023/08/20 00:32:49;;;;;;;0.68;0.68;;;;;;;23.55;68.12;101447.84;6318182;23;20063;-88
2023/08/20 00:35:20;;;;;;;0.40;0.40;;;;;;;23.56;67.87;101445.06;6316854;23;20001;-93
2023/08/20 00:37:51;;;;;;;0.55;0.55;;;;;;;23.55;67.70;101445.19;6316864;23;20059;-90
2023/08/20 00:40:21;;;;;;;0.65;0.65;;;;;;;23.52;68.07;101440.03;6316147;23;20028;-90
2023/08/20 00:42:51;;;;;;;0.68;0.68;;;;;;;23.53;67.35;101447.09;6318726;23;20547;-92
2023/08/20 00:45:23;;;;;;;0.50;0.50;;;;;;;23.50;67.93;101453.53;6319148;23;20002;-90
2023/08/20 00:47:53;;;;;;;0.45;0.45;;;;;;;23.48;67.80;101442.06;6319417;23;20009;-92
2023/08/20 00:50:24;;;;;;;1.17;1.13;;;;;;;23.45;68.33;101436.91;6316684;23;20471;-90
2023/08/20 00:52:55;;;;;;;0.63;0.63;;;;;;;23.47;67.81;101443.03;6318219;23;20152;-89
2023/08/20 00:55:25;;;;;;;1.10;0.77;;;;;;;23.45;68.02;101428.03;6340820;23;20005;-90
2023/08/20 00:57:56;;;;;;;0.63;0.60;;;;;;;23.47;67.94;101420.75;6316197;23;20012;-92
2023/08/20 01:00:26;;;;;;;0.70;0.70;;;;;;;23.46;68.06;101425.25;6317914;23;20009;-89
2023/08/20 01:02:57;;;;;;;1.77;1.42;;;;;;;23.44;68.00;101432.53;6316098;23;20012;-89
2023/08/20 01:05:33;;;;;;;0.93;0.93;;;;;;;23.40;67.99;101441.75;6317238;23;20420;-90
2023/08/20 01:08:33;;;;;;;3.15;1.85;;;;;;;23.27;69.34;101437.25;6316448;23;20017;-89
2023/08/20 01:11:21;;;;;;;1.27;1.15;;;;;;;23.31;68.49;101432.53;6314942;23;20189;-90
2023/08/20 01:13:54;;;;;;;1.10;1.10;;;;;;;23.29;68.75;101433.59;6316944;23;20035;-91
2023/08/20 01:16:25;;;;;;;0.60;0.52;;;;;;;23.32;68.48;101428.03;6341134;23;20006;-89
2023/08/20 01:18:55;;;;;;;0.40;0.40;;;;;;;23.31;68.68;101434.38;6316215;23;20097;-90
2023/08/20 01:21:58;;;;;;;0.40;0.40;;;;;;;23.33;68.67;101430.59;6316147;23;20452;-90
2023/08/20 01:24:37;;;;;;;0.43;0.43;;;;;;;23.27;68.64;101434.56;6297492;23;20336;-90
2023/08/20 01:27:27;;;;;;;0.50;0.50;;;;;;;23.07;70.32;101437.75;6316485;23;20013;-90
2023/08/20 01:30:00;;;;;;;0.82;0.82;;;;;;;23.17;69.58;101429.94;6378446;23;20005;-90
2023/08/20 01:32:31;;;;;;;1.58;1.08;;;;;;;23.17;68.98;101425.44;6316836;23;20006;-88
2023/08/20 01:35:02;;;;;;;0.88;0.88;;;;;;;23.19;68.82;101425.38;6317756;23;20041;-90
2023/08/20 01:37:32;;;;;;;0.80;0.77;;;;;;;23.15;69.00;101443.44;6317169;23;20002;-90
2023/08/20 01:40:03;;;;;;;1.70;1.60;;;;;;;23.13;68.87;101437.31;6317769;23;20099;-90
2023/08/20 01:42:34;;;;;;;0.85;0.85;;;;;;;23.11;68.53;101442.78;6316514;23;20013;-90
2023/08/20 01:45:05;;;;;;;1.73;0.93;;;;;;;23.07;69.06;101446.63;6317462;23;20036;-89
2023/08/20 01:47:36;;;;;;;0.55;0.55;;;;;;;23.05;69.10;101448.56;6316734;23;20013;-89
2023/08/20 01:50:07;;;;;;;0.40;0.40;;;;;;;23.03;68.75;101450.47;6317521;23;20032;-91
2023/08/20 01:52:37;;;;;;;2.10;0.75;;;;;;;23.02;68.88;101446.09;6319690;23;20012;-90
2023/08/20 01:55:08;;;;;;;1.25;1.10;;;;;;;23.02;68.90;101450.56;6321269;23;20008;-90
2023/08/20 01:57:38;;;;;;;4.05;1.02;;;;;;;23.03;69.08;101460.31;6318594;23;20064;-88
2023/08/20 02:00:09;;;;;;;0.40;0.40;;;;;;;23.00;68.83;101464.06;6318121;23;20010;-88
2023/08/20 02:02:40;;;;;;;0.30;0.30;;;;;;;23.01;68.73;101446.22;6316109;23;20086;-90
2023/08/20 02:05:10;;;;;;;1.50;1.23;;;;;;;22.93;68.87;101460.94;6315260;23;20006;-88
2023/08/20 02:07:41;;;;;;;0.80;0.80;;;;;;;22.92;69.22;101461.94;6316060;23;20006;-89
2023/08/20 02:10:11;;;;;;;0.40;0.40;;;;;;;22.92;69.20;101459.25;6316657;23;20036;-90
2023/08/20 02:12:41;;;;;;;0.70;0.70;;;;;;;22.93;69.19;101458.25;6316226;23;20015;-90
2023/08/20 02:15:12;;;;;;;0.43;0.43;;;;;;;22.91;69.11;101462.88;6316056;23;20005;-89
2023/08/20 02:17:42;;;;;;;1.77;1.63;;;;;;;22.86;69.22;101472.19;6317707;23;20032;-89
2023/08/20 02:20:13;;;;;;;0.73;0.73;;;;;;;22.88;69.25;101467.59;6316078;23;20005;-90
2023/08/20 02:22:43;;;;;;;0.50;0.50;;;;;;;22.71;71.46;101471.38;6316709;23;20017;-90
2023/08/20 02:25:13;;;;;;;0.60;0.60;;;;;;;22.12;75.75;101478.69;6316410;23;20657;-92
2023/08/20 02:27:44;;;;;;;0.60;0.60;;;;;;;22.37;72.31;101478.91;6316972;23;20584;-90
2023/08/20 02:30:15;;;;;;;1.27;0.93;;;;;;;22.61;70.84;101487.19;6315501;23;20064;-89
2023/08/20 02:32:45;;;;;;;1.25;1.05;;;;;;;22.66;70.14;101495.75;6316315;23;20044;-89
2023/08/20 02:35:16;;;;;;;0.43;0.43;;;;;;;22.66;70.15;101490.41;6316701;23;20013;-90
2023/08/20 02:37:47;;;;;;;3.33;1.77;;;;;;;22.27;75.18;101490.19;6316110;23;20474;-92
2023/08/20 02:40:17;;;;;;;1.88;0.90;;;;;;;22.35;73.33;101488.88;6375888;23;20005;-90
2023/08/20 02:42:48;;;;;;;0.75;0.75;;;;;;;22.50;72.29;101490.56;6339471;23;20002;-90
2023/08/20 02:45:18;;;;;;;0.95;0.82;;;;;;;22.46;72.02;101494.38;6316398;23;20083;-92
2023/08/20 02:47:49;;;;;;;3.25;2.20;;;;;;;22.57;71.11;101497.22;6340084;23;20018;-89
2023/08/20 02:50:19;;;;;;;2.35;1.33;;;;;;;22.45;72.01;101500.69;6314398;23;20013;-89
2023/08/20 02:52:50;;;;;;;1.55;1.08;;;;;;;22.51;71.48;101497.63;6375947;23;20379;-90
2023/08/20 02:55:20;;;;;;;40.83;2.85;;;;;;;22.45;71.40;101508.72;6313886;23;20059;-91
2023/08/20 02:57:50;;;;;;;2.15;1.65;;;;;;;22.52;70.97;101510.03;6340496;23;20347;-90
2023/08/20 03:00:21;;;;;;;3.20;2.05;;;;;;;22.53;70.57;101505.56;6349332;23;20113;-91
2023/08/20 03:02:51;;;;;;;1.50;1.40;;;;;;;22.23;73.88;101515.41;6339987;23;20020;-89
2023/08/20 03:05:22;;;;;;;0.73;0.73;;;;;;;22.41;71.42;101518.75;6315482;23;20028;-89
2023/08/20 03:07:53;;;;;;;1.23;1.13;;;;;;;22.32;72.43;101517.50;6340261;23;20006;-89
2023/08/20 03:10:23;;;;;;;0.85;0.82;;;;;;;22.44;71.46;101515.00;6337473;23;20009;-88
2023/08/20 03:12:54;;;;;;;0.60;0.60;;;;;;;22.46;71.04;101515.78;6314724;23;20301;-90
2023/08/20 03:15:24;;;;;;;0.80;0.80;;;;;;;22.46;70.96;101505.97;6314236;23;20096;-90
2023/08/20 03:17:54;;;;;;;1.33;1.23;;;;;;;22.29;73.16;101511.50;6314980;23;20032;-90
2023/08/20 03:20:25;;;;;;;0.80;0.80;;;;;;;22.44;71.15;101509.66;6338354;23;20005;-89
2023/08/20 03:22:55;;;;;;;1.30;1.20;;;;;;;22.48;71.00;101517.38;6337974;23;20502;-89
2023/08/20 03:25:26;;;;;;;2.55;1.00;;;;;;;22.48;70.59;101519.22;6346092;23;20013;-89
2023/08/20 03:27:56;;;;;;;2.45;1.73;;;;;;;22.48;70.56;101525.41;6313510;23;20041;-89
2023/08/20 03:30:27;;;;;;;0.75;0.52;;;;;;;22.46;70.69;101521.13;6316049;23;20015;-92
2023/08/20 03:32:57;;;;;;;1.33;1.23;;;;;;;22.44;70.80;101517.69;6316030;23;20012;-91
2023/08/20 03:35:28;;;;;;;1.35;1.25;;;;;;;22.47;70.68;101528.19;6313440;23;20002;-89
2023/08/20 03:37:58;;;;;;;0.40;0.40;;;;;;;22.32;72.42;101536.22;6313858;23;20051;-88
2023/08/20 03:40:29;;;;;;;1.65;1.35;;;;;;;22.39;71.43;101538.50;6312188;23;20006;-90
2023/08/20 03:42:59;;;;;;;1.25;1.20;;;;;;;22.14;72.84;101522.22;6311149;23;20020;-88
2023/08/20 03:45:30;;;;;;;1.08;0.60;;;;;;;22.23;71.64;101522.59;6312189;23;20049;-89
2023/08/20 03:48:01;;;;;;;1.42;1.33;;;;;;;22.25;71.76;101524.22;6311738;23;20088;-91
2023/08/20 03:50:31;;;;;;;0.60;0.60;;;;;;;22.30;71.37;101518.56;6311759;23;20391;-89
2023/08/20 03:53:01;;;;;;;4.45;1.73;;;;;;;22.33;71.28;101529.94;6346676;23;20060;-89
2023/08/20 03:55:32;;;;;;;3.63;2.33;;;;;;;22.34;71.15;101536.13;6336046;23;20408;-89
2023/08/20 03:58:02;;;;;;;2.95;1.23;;;;;;;22.32;70.94;101524.66;6313029;23;20048;-89
2023/08/20 04:00:34;;;;;;;2.25;1.98;;;;;;;22.31;70.86;101526.47;6311538;23;20435;-89
2023/08/20 04:03:05;;;;;;;0.70;0.70;;;;;;;22.20;72.92;101531.66;6310891;23;20359;-90
2023/08/20 04:05:39;;;;;;;2.33;1.65;;;;;;;22.22;71.98;101531.56;6312831;23;20001;-91
2023/08/20 04:08:11;;;;;;;0.80;0.80;;;;;;;22.20;71.89;101537.00;6338205;23;20006;-90
2023/08/20 04:10:44;;;;;;;1.08;1.08;;;;;;;22.25;70.86;101532.22;6314749;23;20314;-89
2023/08/20 04:13:16;;;;;;;1.08;1.02;;;;;;;22.28;71.05;101529.34;6314447;23;20071;-90
2023/08/20 04:15:46;;;;;;;2.30;1.83;;;;;;;22.28;70.65;101533.84;6314341;23;20080;-91
2023/08/20 04:18:16;;;;;;;0.55;0.55;;;;;;;22.27;70.84;101538.31;6311962;23;20005;-89
2023/08/20 04:20:47;;;;;;;0.40;0.40;;;;;;;22.24;70.93;101527.84;6311603;23;20009;-90
2023/08/20 04:23:19;;;;;;;0.68;0.68;;;;;;;22.24;71.23;101535.84;6338718;23;20335;-91
2023/08/20 04:25:49;;;;;;;0.85;0.85;;;;;;;22.23;70.67;101542.16;6335408;23;20006;-90
2023/08/20 04:28:19;;;;;;;0.80;0.77;;;;;;;22.24;70.68;101533.19;6313376;23;20014;-91
2023/08/20 04:30:53;;;;;;;4.22;1.50;;;;;;;22.22;71.19;101535.09;6314607;23;20307;-91
2023/08/20 04:33:24;;;;;;;0.80;0.80;;;;;;;22.21;70.60;101530.69;6315652;23;20175;-91
2023/08/20 04:35:54;;;;;;;1.83;1.50;;;;;;;22.20;70.91;101530.81;6314828;23;20029;-90
2023/08/20 04:38:25;;;;;;;1.48;1.00;;;;;;;22.17;71.30;101534.53;6314569;23;20002;-91
2023/08/20 04:40:55;;;;;;;0.70;0.70;;;;;;;22.20;70.55;101541.50;6317059;23;20034;-88
2023/08/20 04:43:25;;;;;;;1.60;1.50;;;;;;;22.12;71.02;101533.94;6317506;23;20320;-92
2023/08/20 04:45:56;;;;;;;1.58;1.48;;;;;;;22.12;70.63;101539.28;6316824;23;20062;-92
2023/08/20 04:48:26;;;;;;;1.50;1.40;;;;;;;22.10;70.53;101543.91;6316610;23;20010;-91
2023/08/20 04:50:57;;;;;;;1.45;1.35;;;;;;;21.54;75.80;101550.78;6316801;23;20032;-92
2023/08/20 04:53:27;;;;;;;1.52;1.38;;;;;;;21.76;73.49;101548.66;6317427;23;20009;-89
2023/08/20 04:55:58;;;;;;;17.38;1.88;;;;;;;21.76;74.06;101554.84;6321396;23;20190;-93
2023/08/20 04:58:29;;;;;;;1.10;0.98;;;;;;;21.88;72.13;101547.88;6334447;23;20005;-89
2023/08/20 05:00:59;;;;;;;1.70;1.55;;;;;;;21.97;71.53;101558.00;6320035;23;20325;-89
2023/08/20 05:03:30;;;;;;;5.13;2.83;;;;;;;21.93;71.51;101556.50;6319818;23;20008;-90
2023/08/20 05:06:00;;;;;;;1.35;1.25;;;;;;;21.94;71.61;101558.19;6322765;23;20017;-90
2023/08/20 05:08:30;;;;;;;1.23;0.93;;;;;;;21.93;71.45;101551.16;6326551;23;20451;-89
2023/08/20 05:11:01;;;;;;;1.58;1.17;;;;;;;21.97;70.99;101565.19;6322103;23;20009;-89
2023/08/20 05:13:31;;;;;;;2.63;1.25;;;;;;;21.97;70.73;101558.00;6322952;23;20002;-88
2023/08/20 05:16:02;;;;;;;1.85;1.70;;;;;;;21.95;71.05;101557.25;6318667;23;20360;-90
2023/08/20 05:18:32;;;;;;;1.85;1.40;;;;;;;21.96;71.34;101556.28;6319193;23;19997;-90
2023/08/20 05:21:02;;;;;;;1.15;1.05;;;;;;;21.92;71.19;101546.75;6316917;23;20056;-89
2023/08/20 05:23:33;;;;;;;2.28;1.52;;;;;;;21.92;71.19;101549.44;6316579;23;20420;-89
2023/08/20 05:26:03;;;;;;;3.45;2.00;;;;;;;21.93;71.38;101550.28;6318057;23;20100;-90
2023/08/20 05:28:34;;;;;;;0.93;0.68;;;;;;;21.93;71.14;101555.63;6316488;23;20010;-90
2023/08/20 05:31:05;;;;;;;1.50;1.40;;;;;;;21.90;71.25;101550.50;6315620;23;20295;-88
2023/08/20 05:33:35;;;;;;;0.68;0.68;;;;;;;21.94;71.12;101560.00;6317568;23;20012;-89
2023/08/20 05:36:06;;;;;;;0.63;0.63;;;;;;;21.93;70.89;101558.28;6316593;23;20013;-89
2023/08/20 05:38:36;;;;;;;2.28;1.55;;;;;;;21.90;71.08;101554.00;6342013;23;20057;-90
2023/08/20 05:41:06;;;;;;;1.23;1.00;;;;;;;21.92;71.06;101560.13;6314650;23;20014;-89
2023/08/20 05:43:37;;;;;;;2.40;1.38;;;;;;;21.53;75.31;101566.88;6320719;23;20059;-90
2023/08/20 05:46:07;;;;;;;2.40;1.60;;;;;;;21.51;74.99;101568.81;6315832;23;20012;-92
2023/08/20 05:48:38;;;;;;;0.88;0.88;;;;;;;21.68;73.03;101567.81;6340027;23;20040;-89
2023/08/20 05:51:08;;;;;;;1.27;1.17;;;;;;;21.49;75.45;101568.88;6315405;23;20467;-91
2023/08/20 05:53:38;;;;;;;1.15;1.10;;;;;;;21.47;76.85;101575.25;6339531;23;20482;-89
2023/08/20 05:56:09;;;;;;;1.52;1.42;;;;;;;21.68;73.28;101579.38;6340357;23;20009;-91
2023/08/20 05:58:39;;;;;;;0.60;0.60;;;;;;;21.31;77.60;101581.53;6340124;23;20001;-90
2023/08/20 06:01:09;;;;;;;1.65;1.02;;;;;;;21.52;75.21;101584.72;6337364;23;20512;-91
2023/08/20 06:03:40;;;;;;;1.80;1.65;;;;;;;21.40;77.28;101585.47;6315874;23;20515;-90
2023/08/20 06:06:10;;;;;;;4.15;2.42;;;;;;;21.48;74.72;101585.00;6319738;23;20012;-90
2023/08/20 06:08:41;;;;;;;1.83;1.67;;;;;;;21.53;74.15;101590.91;6319336;23;20036;-91
2023/08/20 06:11:11;;;;;;;8.70;2.13;;;;;;;21.64;73.61;101587.66;6342966;23;20009;-90
2023/08/20 06:13:42;;;;;;;1.35;1.25;;;;;;;21.67;72.73;101587.44;6345228;23;20029;-91
2023/08/20 06:16:12;;;;;;;1.77;1.48;;;;;;;21.72;72.95;101584.50;6320031;23;20009;-90
2023/08/20 06:18:43;;;;;;;2.58;2.33;;;;;;;21.74;72.67;101583.44;6346132;23;20010;-90
2023/08/20 06:21:13;;;;;;;8.10;1.55;;;;;;;21.77;72.55;101585.94;6322524;23;20044;-90
2023/08/20 06:23:43;;;;;;;0.90;0.85;;;;;;;21.66;73.40;101588.41;6322170;23;20010;-90
2023/08/20 06:26:14;;;;;;;0.88;0.85;;;;;;;21.76;73.06;101583.38;6320091;23;20013;-91
2023/08/20 06:28:44;;;;;;;1.83;1.70;;;;;;;21.81;72.29;101583.94;6318075;23;20392;-91
2023/08/20 06:31:15;;;;;;;1.30;1.15;;;;;;;21.83;72.95;101582.91;6351216;23;20001;-90
2023/08/20 06:33:47;;;;;;;1.02;1.02;;;;;;;21.89;72.81;101589.69;6342321;23;20075;-87
2023/08/20 06:36:17;;;;;;;2.00;1.47;;;;;;;21.97;72.24;101582.06;6319256;23;20009;-86
2023/08/20 06:38:47;;;;;;;1.00;1.00;;;;;;;22.05;72.21;101580.72;6319277;23;20002;-89
2023/08/20 06:41:18;;;;;;;3.03;0.70;;;;;;;22.00;75.05;101589.91;6325621;23;20024;-89
2023/08/20 06:43:48;;;;;;;1.52;1.00;;;;;;;22.00;72.92;101589.91;6325884;23;20072;-84
2023/08/20 06:46:19;;;;;;;1.65;0.80;;;;;;;22.00;73.09;101589.91;6343572;23;20021;-84
2023/08/20 06:48:49;;;;;;;1.58;1.38;;;;;;;22.01;72.91;101586.28;6317170;23;20013;-84
2023/08/20 06:51:25;;;;;;;1.67;1.58;;;;;;;22.08;73.51;101596.56;6340439;23;20017;-85
2023/08/20 06:53:56;;;;;;;1.70;1.48;;;;;;;22.10;73.04;101595.50;6342716;23;20009;-87
2023/08/20 06:56:26;;;;;;;1.00;0.98;;;;;;;22.09;74.76;101598.28;6377761;23;20005;-86
2023/08/20 06:58:57;;;;;;;3.05;1.83;;;;;;;22.10;73.15;101595.50;6352340;23;20008;-88
2023/08/20 07:01:27;;;;;;;1.05;1.05;;;;;;;22.11;73.19;101591.88;6379181;23;20033;-88
2023/08/20 07:03:58;;;;;;;4.00;2.15;;;;;;;22.09;73.48;101599.13;6343786;23;20020;-88
2023/08/20 07:06:28;;;;;;;0.77;0.77;;;;;;;22.14;73.01;101596.19;6319684;23;20012;-88
2023/08/20 07:09:03;;;;;;;3.85;2.28;;;;;;;22.17;73.23;101590.66;6319232;23;20009;-88
2023/08/20 07:11:34;;;;;;;0.95;0.95;;;;;;;22.13;74.64;101586.44;6371976;23;20006;-90
2023/08/20 07:14:04;;;;;;;2.88;1.95;;;;;;;22.13;73.90;101584.66;6334997;23;20087;-87
2023/08/20 07:16:34;;;;;;;1.23;1.08;;;;;;;22.03;75.20;101586.16;6345967;23;20006;-87
2023/08/20 07:19:05;;;;;;;2.85;1.60;;;;;;;22.17;73.71;101586.16;6312893;23;20037;-88
2023/08/20 07:21:35;;;;;;;1.27;1.17;;;;;;;22.20;74.82;101579.75;6312540;23;20019;-88
2023/08/20 07:24:06;;;;;;;2.33;1.25;;;;;;;22.18;74.22;101581.69;6312882;23;20642;-89
2023/08/20 07:26:36;;;;;;;2.65;1.20;;;;;;;22.20;73.93;101587.78;6314312;23;20335;-88
2023/08/20 07:29:07;;;;;;;0.57;0.57;;;;;;;22.28;73.54;101585.47;6314798;23;20012;-88
2023/08/20 07:31:37;;;;;;;1.17;1.05;;;;;;;22.28;75.71;101577.47;6336598;23;20001;-89
2023/08/20 07:34:07;;;;;;;1.33;1.23;;;;;;;22.25;74.88;101585.69;6313746;23;20008;-89
2023/08/20 07:36:38;;;;;;;0.98;0.98;;;;;;;22.35;74.17;101583.28;6333729;23;20012;-89
2023/08/20 07:39:08;;;;;;;1.48;0.93;;;;;;;22.31;77.12;101582.63;6369447;23;20005;-89
2023/08/20 07:41:39;;;;;;;1.85;1.67;;;;;;;22.29;76.08;101592.53;6332556;23;20020;-88
2023/08/20 07:44:09;;;;;;;1.73;1.63;;;;;;;22.40;74.95;101591.88;6342954;23;20009;-89
2023/08/20 07:46:39;;;;;;;1.02;1.00;;;;;;;22.33;78.07;101599.44;6333926;23;20005;-88
2023/08/20 07:49:10;;;;;;;1.80;1.52;;;;;;;22.44;75.50;101597.91;6324643;23;20351;-90
2023/08/20 07:51:40;;;;;;;5.57;1.23;;;;;;;22.52;76.37;101595.59;6389485;23;20040;-89
2023/08/20 07:54:10;;;;;;;0.80;0.80;;;;;;;22.60;76.46;101595.97;6308264;23;20098;-88
2023/08/20 07:56:41;;;;;;;1.05;1.02;;;;;;;22.49;77.86;101590.47;6304786;23;20016;-88
2023/08/20 07:59:11;;;;;;;2.80;2.53;;;;;;;22.53;76.79;101589.28;6328339;23;20394;-88
2023/08/20 08:01:41;;;;;;;3.85;1.52;;;;;;;22.64;76.64;101589.47;6305200;23;20323;-88
2023/08/20 08:04:12;;;;;;;2.22;1.75;;;;;;;22.60;78.30;101590.63;6331676;23;20064;-88
2023/08/20 08:06:42;;;;;;;1.13;1.08;;;;;;;22.68;76.19;101591.97;6306009;23;20005;-87
2023/08/20 08:09:26;;;;;;;3.00;2.35;;;;;;;22.68;78.20;101598.16;6331230;23;20010;-87
2023/08/20 08:11:57;;;;;;;3.20;1.65;;;;;;;22.73;77.38;101596.03;6367879;23;20408;-88
2023/08/20 08:14:28;;;;;;;2.55;1.67;;;;;;;22.74;77.85;101583.53;6368466;23;20348;-88
2023/08/20 08:16:58;;;;;;;4.22;2.72;;;;;;;22.73;78.53;101593.34;6332801;23;20056;-90
2023/08/20 08:19:31;;;;;;;4.68;2.42;;;;;;;22.74;79.56;101597.75;6332242;23;20155;-88
2023/08/20 08:22:03;;;;;;;1.88;1.77;;;;;;;22.85;76.69;101596.19;6307906;23;20100;-88
2023/08/20 08:24:33;;;;;;;2.58;1.45;;;;;;;22.82;78.84;101599.94;6332078;23;20682;-87
2023/08/20 08:27:04;;;;;;;2.33;1.27;;;;;;;22.90;79.23;101602.97;6370658;23;20021;-88
2023/08/20 08:29:34;;;;;;;1.63;1.48;;;;;;;22.89;78.77;101598.56;6332898;23;20016;-88
2023/08/20 08:32:04;;;;;;;2.22;2.03;;;;;;;22.94;79.06;101601.78;6341995;23;20013;-88
2023/08/20 08:34:38;;;;;;;7.47;2.35;;;;;;;23.01;77.61;101599.59;6332286;23;20060;-87
2023/08/20 08:37:08;;;;;;;3.47;2.13;;;;;;;22.98;77.64;101597.09;6332177;23;20006;-87
2023/08/20 08:39:38;;;;;;;5.80;2.80;;;;;;;23.00;78.23;101600.53;6307479;23;20293;-87
2023/08/20 08:42:10;;;;;;;1.55;1.33;;;;;;;22.99;80.05;101597.97;6370297;23;20387;-88
2023/08/20 08:44:41;;;;;;;2.63;1.35;;;;;;;23.06;77.78;101602.81;6312264;23;20352;-88
2023/08/20 08:47:12;;;;;;;1.92;1.77;;;;;;;23.09;78.15;101599.94;6334642;23;20009;-89
2023/08/20 08:49:46;;;;;;;1.63;1.52;;;;;;;23.17;77.65;101601.25;6339199;23;20036;-89
2023/08/20 08:52:17;;;;;;;1.38;1.30;;;;;;;23.23;77.40;101604.41;6317616;23;20013;-89
2023/08/20 08:54:48;;;;;;;5.45;2.20;;;;;;;23.20;77.50;101606.44;6309825;23;20017;-89
2023/08/20 08:57:18;;;;;;;0.88;0.82;;;;;;;23.27;76.20;101599.72;6338343;23;20009;-89
2023/08/20 08:59:49;;;;;;;8.48;2.42;;;;;;;23.31;77.12;101600.34;6335059;23;20005;-89
2023/08/20 09:02:19;;;;;;;0.73;0.73;;;;;;;23.38;77.06;101604.34;6307584;23;20302;-88
2023/08/20 09:04:50;;;;;;;1.23;1.02;;;;;;;23.45;76.24;101602.94;6309043;23;20016;-89
2023/08/20 09:07:20;;;;;;;0.90;0.90;;;;;;;23.46;76.58;101606.50;6375760;23;20005;-89
2023/08/20 09:09:58;;;;;;;0.93;0.93;;;;;;;23.47;75.87;101600.19;6336868;23;20344;-90
2023/08/20 09:12:34;;;;;;;5.40;1.67;;;;;;;23.42;74.52;101605.84;6310179;23;20096;-88
2023/08/20 09:15:10;;;;;;;1.77;1.67;;;;;;;23.43;75.06;101604.88;6370500;23;20028;-90
2023/08/20 09:17:41;;;;;;;27.77;2.38;;;;;;;23.49;74.97;101604.47;6334994;23;20375;-89
2023/08/20 09:20:12;;;;;;;1.27;0.98;;;;;;;23.55;75.01;101614.75;6333724;23;20009;-90
2023/08/20 09:22:49;;;;;;;1.35;0.93;;;;;;;23.56;75.09;101608.44;6338617;23;20483;-90
2023/08/20 09:25:19;;;;;;;1.05;1.00;;;;;;;23.64;74.71;101604.38;6332543;23;20091;-89
2023/08/20 09:27:50;;;;;;;3.10;1.65;;;;;;;23.66;74.70;101613.19;6314680;23;20443;-90
2023/08/20 09:30:20;;;;;;;0.93;0.90;;;;;;;23.64;73.97;101613.25;6337898;23;20010;-89
2023/08/20 09:33:23;;;;;;;1.17;1.08;;;;;;;23.65;73.81;101614.13;6350076;23;20009;-88
2023/08/20 09:35:54;;;;;;;0.88;0.88;;;;;;;23.70;73.96;101612.88;6267650;23;20013;-89
2023/08/20 09:38:25;;;;;;;0.50;0.50;;;;;;;23.76;74.17;101608.88;6340312;23;20101;-89
2023/08/20 09:40:59;;;;;;;0.40;0.40;;;;;;;23.84;74.06;101606.53;6314988;23;20005;-89
2023/08/20 09:43:31;;;;;;;0.68;0.68;;;;;;;23.94;73.92;101616.63;6339979;23;20040;-89
2023/08/20 09:46:03;;;;;;;0.77;0.77;;;;;;;23.99;73.89;101612.69;6340749;23;20576;-88
2023/08/20 09:48:35;;;;;;;1.40;0.75;;;;;;;23.93;74.19;101614.88;6316915;23;20116;-89
2023/08/20 09:51:11;;;;;;;1.58;1.20;;;;;;;23.94;74.17;101612.16;6340329;23;20016;-88
2023/08/20 09:53:50;;;;;;;1.10;1.05;;;;;;;24.00;73.49;101611.72;6378003;23;20041;-87
2023/08/20 09:56:30;;;;;;;0.63;0.63;;;;;;;24.04;73.35;101620.41;6343577;23;20009;-89
2023/08/20 09:59:02;;;;;;;0.77;0.73;;;;;;;24.11;73.06;101621.69;6379716;23;20088;-91
2023/08/20 10:01:33;;;;;;;0.70;0.70;;;;;;;24.17;72.77;101617.72;6342213;23;20006;-89
2023/08/20 10:04:04;;;;;;;1.58;0.98;;;;;;;24.22;72.22;101614.72;6337488;23;20088;-88
2023/08/20 10:06:36;;;;;;;0.88;0.88;;;;;;;24.27;72.10;101620.59;6337784;23;20474;-89
2023/08/20 10:09:07;;;;;;;1.63;1.52;;;;;;;24.33;72.62;101612.13;6337274;23;20033;-89
2023/08/20 10:11:37;;;;;;;0.82;0.82;;;;;;;24.42;71.88;101619.50;6311885;23;20514;-88
2023/08/20 10:14:08;;;;;;;1.27;0.73;;;;;;;24.47;71.15;101609.31;6337982;23;20040;-89
2023/08/20 10:16:39;;;;;;;0.77;0.77;;;;;;;24.50;70.89;101609.06;6312729;23;20016;-89
2023/08/20 10:19:09;;;;;;;0.63;0.50;;;;;;;24.59;70.51;101610.25;6313877;23;20021;-89
2023/08/20 10:21:44;;;;;;;1.65;1.23;;;;;;;24.67;70.43;101615.06;6350144;23;20005;-91
2023/08/20 10:24:21;;;;;;;0.60;0.60;;;;;;;24.79;70.15;101616.84;6317809;23;20060;-92
2023/08/20 10:27:08;;;;;;;0.65;0.65;;;;;;;24.99;69.22;101614.53;6351240;23;20059;-90
2023/08/20 10:29:41;;;;;;;0.75;0.70;;;;;;;25.01;68.52;101617.94;6326552;23;20307;-91
2023/08/20 10:32:13;;;;;;;0.75;0.70;;;;;;;25.08;68.33;101621.88;6336196;23;20005;-90
2023/08/20 10:34:51;;;;;;;0.80;0.80;;;;;;;25.08;69.50;101616.50;6320909;23;20026;-89
2023/08/20 10:37:30;;;;;;;4.00;1.23;;;;;;;25.19;67.55;101621.09;6319725;23;20005;-89
2023/08/20 10:40:01;;;;;;;0.88;0.77;;;;;;;25.21;68.54;101618.28;6317395;23;20352;-90
2023/08/20 10:42:32;;;;;;;0.75;0.75;;;;;;;25.24;68.06;101626.13;6322686;23;20071;-89
2023/08/20 10:45:08;;;;;;;1.70;1.33;;;;;;;25.23;67.34;101622.56;6360546;23;20009;-87
2023/08/20 10:47:45;;;;;;;0.70;0.70;;;;;;;25.26;67.80;101632.22;6321520;23;20469;-89
2023/08/20 10:50:17;;;;;;;2.60;1.13;;;;;;;25.26;68.20;101616.09;6316404;23;20487;-89
2023/08/20 10:52:55;;;;;;;0.47;0.47;;;;;;;25.29;68.25;101615.88;6320583;23;20020;-90
2023/08/20 10:55:25;;;;;;;0.38;0.38;;;;;;;25.42;68.47;101621.22;6320546;23;20032;-91
2023/08/20 10:57:57;;;;;;;0.65;0.65;;;;;;;25.44;66.91;101608.53;6317032;23;20532;-88
2023/08/20 11:00:28;;;;;;;1.30;1.23;;;;;;;25.50;66.75;101613.44;6312014;23;20451;-89
2023/08/20 11:02:59;;;;;;;1.08;0.98;;;;;;;25.51;66.66;101619.63;6311463;23;20359;-88
2023/08/20 11:05:30;;;;;;;0.68;0.68;;;;;;;25.45;66.44;101621.00;6309567;23;20152;-87
2023/08/20 11:08:03;;;;;;;0.73;0.63;;;;;;;25.51;66.26;101625.88;6308667;23;20120;-87
2023/08/20 11:10:33;;;;;;;0.50;0.50;;;;;;;25.46;66.90;101614.63;6310158;23;20024;-87
2023/08/20 11:13:05;;;;;;;0.60;0.60;;;;;;;25.47;67.38;101618.19;6333281;23;20009;-86
2023/08/20 11:15:38;;;;;;;0.47;0.47;;;;;;;25.49;66.32;101618.94;6345975;23;20021;-88
2023/08/20 11:18:08;;;;;;;;;;;;;;;25.56;66.24;101623.69;6342417;23;20076;-88
2023/08/20 11:20:39;;;;;;;1.42;1.33;;;;;;;25.59;66.24;101618.09;6314955;23;19919;-88
2023/08/20 11:23:11;;;;;;;0.70;0.70;;;;;;;25.52;66.92;101618.66;6313766;23;20012;-87
2023/08/20 11:25:42;;;;;;;;;;;;;;;25.52;67.15;101611.47;6336330;23;20360;-87
2023/08/20 11:28:13;;;;;;;0.75;0.75;;;;;;;25.54;67.25;101611.34;6337326;23;19940;-87
2023/08/20 11:30:44;;;;;;;1.35;1.23;;;;;;;25.54;66.67;101616.72;6342295;23;20057;-87
2023/08/20 11:33:14;;;;;;;0.35;0.35;;;;;;;25.59;67.70;101618.09;6312435;23;20009;-87
2023/08/20 11:35:45;;;;;;;0.50;0.50;;;;;;;25.66;68.12;101602.34;6314585;23;20039;-86
2023/08/20 11:38:15;;;;;;;0.45;0.45;;;;;;;25.76;67.92;101607.88;6313339;23;20001;-87
2023/08/20 11:40:46;;;;;;;1.55;1.30;;;;;;;26.08;65.44;101607.19;6318409;23;20010;-86
2023/08/20 11:43:16;;;;;;;0.52;0.52;;;;;;;26.23;65.06;101603.28;6373622;23;20002;-88
2023/08/20 11:45:48;;;;;;;1.02;0.38;;;;;;;26.35;64.93;101611.34;6314958;23;20016;-88
2023/08/20 11:48:21;;;;;;;1.58;1.50;;;;;;;26.21;66.03;101607.94;6338561;23;20092;-87